Time;durP1;ratioP1;P1;durP2;ratioP2;P2;SDS_P1;SDS_P2;PMS_P1;PMS_P2;Temp;Humidity;BMP_temperature;BMP_pressure;BME280_temperature;BME280_humidity;BME280_pressure;Samples;Min_cycle;Max_cycle;Signal;HPM_P1;HPM_P2
2023/06/06 00:01:24;;;;;;;;;;;15.50;99.90;;;;;;5013505;28;19932;-69
2023/06/06 00:03:51;;;;;;;;;;;15.40;99.90;;;;;;5010930;28;19932;-69
2023/06/06 00:06:20;;;;;;;;;;;15.40;99.90;;;;;;5015764;28;19975;-70
2023/06/06 00:08:48;;;;;;;;;;;15.30;99.90;;;;;;5008290;28;19925;-69
2023/06/06 00:11:14;;;;;;;;;;;15.30;99.90;;;;;;5013547;28;19925;-70
2023/06/06 00:13:42;;;;;;;;;;;15.30;99.90;;;;;;5007852;28;19932;-69
2023/06/06 00:16:09;;;;;;;;;;;15.30;99.90;;;;;;5012946;28;19931;-70
2023/06/06 00:18:36;;;;;;;;;;;15.30;99.90;;;;;;5013045;28;19925;-69
2023/06/06 00:21:04;;;;;;;;;;;15.40;99.90;;;;;;5015482;28;19933;-69
2023/06/06 00:23:32;;;;;;;;;;;15.40;99.90;;;;;;5014061;28;20467;-69
2023/06/06 00:25:58;;;;;;;;;;;15.40;99.90;;;;;;5011248;28;19975;-70
2023/06/06 00:28:25;;;;;;;;;;;15.40;99.90;;;;;;5011682;28;19925;-68
2023/06/06 00:30:52;;;;;;;;;;;15.40;99.90;;;;;;5001616;28;19933;-69
2023/06/06 00:33:19;;;;;;;;;;;15.50;99.90;;;;;;5015380;28;19925;-69
2023/06/06 00:35:46;;;;;;;;;;;15.50;99.90;;;;;;5010957;28;19926;-70
2023/06/06 00:38:14;;;;;;;;;;;15.50;99.90;;;;;;5012058;28;19978;-70
2023/06/06 00:40:42;;;;;;;;;;;15.50;99.90;;;;;;5015036;28;19925;-69
2023/06/06 00:43:09;;;;;;;;;;;15.50;99.90;;;;;;5014719;28;19925;-70
2023/06/06 00:45:36;;;;;;;;;;;15.50;99.90;;;;;;5004804;28;19926;-70
2023/06/06 00:48:03;;;;;;;;;;;15.50;99.90;;;;;;5015253;28;19925;-69
2023/06/06 00:50:30;;;;;;;;;;;15.60;99.90;;;;;;5015014;28;19937;-69
2023/06/06 00:52:58;;;;;;;;;;;15.60;99.90;;;;;;5014403;28;20380;-72
2023/06/06 00:55:24;;;;;;;;;;;15.60;99.90;;;;;;5005287;28;19929;-70
2023/06/06 00:57:53;;;;;;;;;;;15.60;99.90;;;;;;5006310;28;19960;-68
2023/06/06 01:00:20;;;;;;;;;;;15.60;99.90;;;;;;5009402;28;19925;-69
2023/06/06 01:02:47;;;;;;;;;;;15.50;99.90;;;;;;5005847;28;20368;-69
2023/06/06 01:05:16;;;;;;;;;;;15.60;99.90;;;;;;4999863;28;19933;-67
2023/06/06 01:07:47;;;;;;;;;;;15.60;99.90;;;;;;5009225;28;19925;-70
2023/06/06 01:10:14;;;;;;;;;;;15.60;99.90;;;;;;4999104;28;20001;-67
2023/06/06 01:12:44;;;;;;;;;;;15.60;99.90;;;;;;5009830;28;19925;-69
2023/06/06 01:15:17;;;;;;;;;;;15.50;99.90;;;;;;5014501;28;19925;-70
2023/06/06 01:17:46;;;;;;;;;;;15.50;99.90;;;;;;5006952;28;19972;-69
2023/06/06 01:20:13;;;;;;;;;;;15.50;99.90;;;;;;5007399;28;19925;-69
2023/06/06 01:22:43;;;;;;;;;;;15.40;99.90;;;;;;5014596;28;19933;-69
2023/06/06 01:25:12;;;;;;;;;;;15.30;99.90;;;;;;5004427;28;19925;-69
2023/06/06 01:27:39;;;;;;;;;;;15.20;99.90;;;;;;5010942;28;19948;-69
2023/06/06 01:30:07;;;;;;;;;;;15.20;99.90;;;;;;5004905;28;20311;-69
2023/06/06 01:32:37;;;;;;;;;;;15.10;99.90;;;;;;5010629;28;19933;-66
2023/06/06 01:35:09;;;;;;;;;;;15.00;99.90;;;;;;5011027;28;19925;-69
2023/06/06 01:37:40;;;;;;;;;;;15.00;99.90;;;;;;5012526;28;19936;-70
2023/06/06 01:40:10;;;;;;;;;;;14.90;99.90;;;;;;5006337;28;19925;-69
2023/06/06 01:42:39;;;;;;;;;;;14.80;99.90;;;;;;5030103;28;19932;-69
2023/06/06 01:45:08;;;;;;;;;;;14.70;99.90;;;;;;5000545;28;20461;-69
2023/06/06 01:47:36;;;;;;;;;;;14.70;99.90;;;;;;5010972;28;19929;-69
2023/06/06 01:50:07;;;;;;;;;;;14.60;99.90;;;;;;5008989;28;20395;-69
2023/06/06 01:52:34;;;;;;;;;;;14.50;99.90;;;;;;5007675;28;19972;-69
2023/06/06 01:55:01;;;;;;;;;;;14.50;99.90;;;;;;5001938;28;19933;-70
2023/06/06 01:57:30;;;;;;;;;;;14.40;99.90;;;;;;5003718;28;19932;-70
2023/06/06 01:59:58;;;;;;;;;;;14.30;99.90;;;;;;5008468;28;19932;-70
2023/06/06 02:02:26;;;;;;;;;;;14.30;99.90;;;;;;5013591;28;20539;-69
2023/06/06 02:04:53;;;;;;;;;;;14.20;99.90;;;;;;5004218;28;19987;-69
2023/06/06 02:07:20;;;;;;;;;;;14.10;99.90;;;;;;5011516;28;19925;-70
2023/06/06 02:09:47;;;;;;;;;;;14.00;99.90;;;;;;5003017;28;19933;-70
2023/06/06 02:12:14;;;;;;;;;;;13.90;99.90;;;;;;5012714;28;19931;-69
2023/06/06 02:14:42;;;;;;;;;;;13.90;99.90;;;;;;5017321;28;19932;-69
2023/06/06 02:17:09;;;;;;;;;;;13.80;99.90;;;;;;5007371;28;20296;-69
2023/06/06 02:19:36;;;;;;;;;;;13.80;99.90;;;;;;5010388;28;19978;-70
2023/06/06 02:22:03;;;;;;;;;;;13.80;99.90;;;;;;5007418;28;19932;-69
2023/06/06 02:24:30;;;;;;;;;;;13.70;99.90;;;;;;5014923;28;19933;-70
2023/06/06 02:26:58;;;;;;;;;;;13.60;99.90;;;;;;5002105;28;19969;-69
2023/06/06 02:29:24;;;;;;;;;;;13.60;99.90;;;;;;5014856;28;19925;-70
2023/06/06 02:31:54;;;;;;;;;;;13.60;99.90;;;;;;5011950;28;19931;-69
2023/06/06 02:34:21;;;;;;;;;;;13.60;99.90;;;;;;5015553;28;20279;-70
2023/06/06 02:36:49;;;;;;;;;;;13.60;99.90;;;;;;5006899;28;19925;-69
2023/06/06 02:39:16;;;;;;;;;;;13.60;99.90;;;;;;5002657;28;19934;-69
2023/06/06 02:41:43;;;;;;;;;;;13.50;99.90;;;;;;5010644;28;20388;-69
2023/06/06 02:44:10;;;;;;;;;;;13.40;99.90;;;;;;5016620;28;19925;-69
2023/06/06 02:46:37;;;;;;;;;;;13.30;99.90;;;;;;5006980;28;19991;-69
2023/06/06 02:49:05;;;;;;;;;;;13.20;99.90;;;;;;5006953;28;19925;-69
2023/06/06 02:51:32;;;;;;;;;;;13.10;99.90;;;;;;5006257;28;20467;-69
2023/06/06 02:53:59;;;;;;;;;;;13.00;99.90;;;;;;5011246;28;19925;-69
2023/06/06 02:56:26;;;;;;;;;;;13.00;99.90;;;;;;5008114;28;19932;-69
2023/06/06 02:58:53;;;;;;;;;;;13.00;99.90;;;;;;5012604;28;19969;-69
2023/06/06 03:01:21;;;;;;;;;;;12.90;99.90;;;;;;5017504;28;20028;-70
2023/06/06 03:03:48;;;;;;;;;;;12.90;99.90;;;;;;5010004;28;19928;-69
2023/06/06 03:06:16;;;;;;;;;;;12.90;99.90;;;;;;5009212;28;19925;-70
2023/06/06 03:08:43;;;;;;;;;;;13.00;99.90;;;;;;5007372;28;19931;-69
2023/06/06 03:11:10;;;;;;;;;;;13.00;99.90;;;;;;5014700;28;19932;-69
2023/06/06 03:13:37;;;;;;;;;;;13.10;99.90;;;;;;5010177;28;19978;-68
2023/06/06 03:16:05;;;;;;;;;;;13.10;99.90;;;;;;5010017;28;19925;-69
2023/06/06 03:18:32;;;;;;;;;;;13.10;99.90;;;;;;5013686;28;19930;-69
2023/06/06 03:21:08;;;;;;;;;;;13.00;99.90;;;;;;5004041;28;19936;-69
2023/06/06 03:23:43;;;;;;;;;;;13.00;99.90;;;;;;5012297;28;19926;-71
2023/06/06 03:26:10;;;;;;;;;;;13.00;99.90;;;;;;5008220;28;19926;-69
2023/06/06 03:28:37;;;;;;;;;;;13.10;99.90;;;;;;5013684;28;19929;-69
2023/06/06 03:31:05;;;;;;;;;;;13.10;99.90;;;;;;5004016;28;19930;-70
2023/06/06 03:33:37;;;;;;;;;;;13.10;99.90;;;;;;5014175;28;19929;-68
2023/06/06 03:36:06;;;;;;;;;;;13.00;99.90;;;;;;5015253;28;19925;-69
2023/06/06 03:38:33;;;;;;;;;;;13.00;99.90;;;;;;5007761;28;19925;-69
2023/06/06 03:41:02;;;;;;;;;;;12.90;99.90;;;;;;5006538;28;19925;-70
2023/06/06 03:43:32;;;;;;;;;;;12.90;99.90;;;;;;5009325;28;19929;-68
2023/06/06 03:45:59;;;;;;;;;;;12.90;99.90;;;;;;5006378;28;19926;-68
2023/06/06 03:48:26;;;;;;;;;;;12.80;99.90;;;;;;5003469;28;19925;-69
2023/06/06 03:50:53;;;;;;;;;;;12.80;99.90;;;;;;5015170;28;19925;-69
2023/06/06 03:53:20;;;;;;;;;;;12.90;99.90;;;;;;5008067;28;20439;-69
2023/06/06 03:55:47;;;;;;;;;;;12.90;99.90;;;;;;5012093;28;20328;-71
2023/06/06 03:58:15;;;;;;;;;;;12.90;99.90;;;;;;5012874;28;19932;-68
2023/06/06 04:00:43;;;;;;;;;;;12.90;99.90;;;;;;5009202;28;19933;-69
2023/06/06 04:03:10;;;;;;;;;;;12.90;99.90;;;;;;5007125;28;19925;-70
2023/06/06 04:05:37;;;;;;;;;;;12.90;99.90;;;;;;5013848;28;20011;-69
2023/06/06 04:08:04;;;;;;;;;;;12.90;99.90;;;;;;5016003;28;20306;-69
2023/06/06 04:10:31;;;;;;;;;;;12.80;99.90;;;;;;5015848;28;19929;-69
2023/06/06 04:12:58;;;;;;;;;;;12.90;99.90;;;;;;5016050;28;19932;-70
2023/06/06 04:15:26;;;;;;;;;;;12.90;99.90;;;;;;5008017;28;19926;-68
2023/06/06 04:17:53;;;;;;;;;;;12.80;99.90;;;;;;5014502;28;19948;-69
2023/06/06 04:20:22;;;;;;;;;;;12.80;99.90;;;;;;5016129;28;19925;-69
2023/06/06 04:22:50;;;;;;;;;;;12.80;99.90;;;;;;5006472;28;19925;-70
2023/06/06 04:25:18;;;;;;;;;;;12.80;99.90;;;;;;5009480;28;19939;-69
2023/06/06 04:27:48;;;;;;;;;;;12.90;99.90;;;;;;5012059;28;19926;-69
2023/06/06 04:30:14;;;;;;;;;;;12.90;99.90;;;;;;5012413;28;19925;-70
2023/06/06 04:32:44;;;;;;;;;;;12.90;99.90;;;;;;5013140;28;20424;-68
2023/06/06 04:35:11;;;;;;;;;;;12.90;99.90;;;;;;5005581;28;19925;-70
2023/06/06 04:37:40;;;;;;;;;;;12.90;99.90;;;;;;5030475;28;19925;-69
2023/06/06 04:40:10;;;;;;;;;;;12.90;99.90;;;;;;5007469;28;19929;-69
2023/06/06 04:42:37;;;;;;;;;;;13.00;99.90;;;;;;5013893;28;20400;-69
2023/06/06 04:45:05;;;;;;;;;;;13.10;99.90;;;;;;5005070;28;19944;-69
2023/06/06 04:47:32;;;;;;;;;;;13.10;99.90;;;;;;5014687;28;19979;-69
2023/06/06 04:50:00;;;;;;;;;;;13.10;99.90;;;;;;5013464;28;19935;-69
2023/06/06 04:52:28;;;;;;;;;;;13.10;99.90;;;;;;5008413;28;19924;-70
2023/06/06 04:54:55;;;;;;;;;;;13.10;99.90;;;;;;5014266;28;19971;-68
2023/06/06 04:57:23;;;;;;;;;;;13.10;99.90;;;;;;5008377;28;20459;-68
2023/06/06 04:59:51;;;;;;;;;;;13.10;99.90;;;;;;5011457;28;19929;-70
2023/06/06 05:02:20;;;;;;;;;;;13.20;99.90;;;;;;5005929;28;20032;-69
2023/06/06 05:04:48;;;;;;;;;;;13.20;99.90;;;;;;5005572;28;19933;-69
2023/06/06 05:07:16;;;;;;;;;;;13.30;99.90;;;;;;5005051;28;19940;-69
2023/06/06 05:09:43;;;;;;;;;;;13.30;99.90;;;;;;5011880;28;19925;-68
2023/06/06 05:12:10;;;;;;;;;;;13.30;99.90;;;;;;5003063;28;19932;-69
2023/06/06 05:14:36;;;;;;;;;;;13.40;99.90;;;;;;5007199;28;19925;-70
2023/06/06 05:17:03;;;;;;;;;;;13.40;99.90;;;;;;5004984;28;19932;-69
2023/06/06 05:19:30;;;;;;;;;;;13.50;99.90;;;;;;5002592;28;19925;-69
2023/06/06 05:21:57;;;;;;;;;;;13.50;99.90;;;;;;5006149;28;19926;-68
2023/06/06 05:24:25;;;;;;;;;;;13.70;99.90;;;;;;5007345;28;19939;-70
2023/06/06 05:26:52;;;;;;;;;;;13.70;99.90;;;;;;5006836;28;19926;-69
2023/06/06 05:29:19;;;;;;;;;;;13.80;99.90;;;;;;5010638;28;19929;-69
2023/06/06 05:31:45;;;;;;;;;;;13.80;99.90;;;;;;5002943;28;19925;-69
2023/06/06 05:34:12;;;;;;;;;;;13.90;99.90;;;;;;5008565;28;19925;-69
2023/06/06 05:36:40;;;;;;;;;;;13.90;99.90;;;;;;5004154;28;19934;-70
2023/06/06 05:39:07;;;;;;;;;;;14.00;99.90;;;;;;5008954;28;19936;-69
2023/06/06 05:41:35;;;;;;;;;;;14.10;99.90;;;;;;5003752;28;19925;-70
2023/06/06 05:44:02;;;;;;;;;;;14.20;99.90;;;;;;5011173;28;19925;-70
2023/06/06 05:46:29;;;;;;;;;;;14.30;99.90;;;;;;5006543;28;19960;-71
2023/06/06 05:48:55;;;;;;;;;;;14.40;99.90;;;;;;5006749;28;19940;-70
2023/06/06 05:51:22;;;;;;;;;;;14.40;99.90;;;;;;5013116;28;19933;-72
2023/06/06 05:53:49;;;;;;;;;;;14.50;99.90;;;;;;5010670;28;19929;-66
2023/06/06 05:56:17;;;;;;;;;;;14.60;99.90;;;;;;5013877;28;19956;-68
2023/06/06 05:58:49;;;;;;;;;;;14.60;99.90;;;;;;5006261;28;20396;-66
2023/06/06 06:01:17;;;;;;;;;;;14.70;99.90;;;;;;5006502;28;19925;-70
2023/06/06 06:03:44;;;;;;;;;;;14.70;99.90;;;;;;5009392;28;19929;-66
2023/06/06 06:06:11;;;;;;;;;;;14.80;99.90;;;;;;5000972;28;20020;-67
2023/06/06 06:08:38;;;;;;;;;;;14.80;99.90;;;;;;5011402;28;19931;-66
2023/06/06 06:11:07;;;;;;;;;;;14.90;99.90;;;;;;5008887;28;19936;-68
2023/06/06 06:13:34;;;;;;;;;;;15.00;99.90;;;;;;5012972;28;19929;-66
2023/06/06 06:16:03;;;;;;;;;;;15.10;99.90;;;;;;5011142;28;19925;-66
2023/06/06 06:18:30;;;;;;;;;;;15.10;99.90;;;;;;5007929;28;19998;-66
2023/06/06 06:20:57;;;;;;;;;;;15.20;99.90;;;;;;5005876;28;19925;-67
2023/06/06 06:23:25;;;;;;;;;;;15.30;99.90;;;;;;5000512;28;19925;-67
2023/06/06 06:25:52;;;;;;;;;;;15.30;99.90;;;;;;5005512;28;19933;-71
2023/06/06 06:28:19;;;;;;;;;;;15.40;99.90;;;;;;5008402;28;19925;-69
2023/06/06 06:30:46;;;;;;;;;;;15.40;99.90;;;;;;5005199;28;19926;-67
2023/06/06 06:33:15;;;;;;;;;;;15.40;99.90;;;;;;5011503;28;19932;-67
2023/06/06 06:35:42;;;;;;;;;;;15.50;99.90;;;;;;5011297;28;19925;-70
2023/06/06 06:38:09;;;;;;;;;;;15.50;99.90;;;;;;5012177;28;20371;-69
2023/06/06 06:40:36;;;;;;;;;;;15.60;99.90;;;;;;5002378;28;19930;-69
2023/06/06 06:43:02;;;;;;;;;;;15.70;99.90;;;;;;5004361;28;19925;-69
2023/06/06 06:45:50;;;;;;;;;;;15.70;99.90;;;;;;5015276;28;20374;-69
2023/06/06 06:48:18;;;;;;;;;;;15.80;99.90;;;;;;4999937;28;19932;-69
2023/06/06 06:50:45;;;;;;;;;;;15.80;99.90;;;;;;5010178;28;20171;-70
2023/06/06 06:53:13;;;;;;;;;;;15.90;99.90;;;;;;5009043;28;19929;-68
2023/06/06 06:55:41;;;;;;;;;;;15.90;99.90;;;;;;5012582;28;19929;-68
2023/06/06 06:58:07;;;;;;;;;;;15.80;99.90;;;;;;5007575;28;19929;-69
2023/06/06 07:00:34;;;;;;;;;;;15.90;99.90;;;;;;5018914;28;19932;-68
2023/06/06 07:03:04;;;;;;;;;;;16.00;99.90;;;;;;5007406;28;19932;-68
2023/06/06 07:05:32;;;;;;;;;;;16.00;99.90;;;;;;5006910;28;19930;-68
2023/06/06 07:07:59;;;;;;;;;;;16.10;99.90;;;;;;5028755;28;19925;-68
2023/06/06 07:10:28;;;;;;;;;;;16.20;99.90;;;;;;5014397;28;19925;-70
2023/06/06 07:12:56;;;;;;;;;;;16.30;99.90;;;;;;5013154;28;19932;-68
2023/06/06 07:15:26;;;;;;;;;;;16.30;99.90;;;;;;5014263;28;19940;-69
2023/06/06 07:17:54;;;;;;;;;;;16.40;99.90;;;;;;5011573;28;19933;-68
2023/06/06 07:20:22;;;;;;;;;;;16.50;99.90;;;;;;5009815;28;19929;-69
2023/06/06 07:22:52;;;;;;;;;;;16.60;99.90;;;;;;5003428;28;19925;-69
2023/06/06 07:25:19;;;;;;;;;;;16.70;99.90;;;;;;5013462;28;20369;-69
2023/06/06 07:27:46;;;;;;;;;;;16.80;99.90;;;;;;5010028;28;19933;-68
2023/06/06 07:30:13;;;;;;;;;;;16.80;99.90;;;;;;5001147;28;19926;-70
2023/06/06 07:32:41;;;;;;;;;;;16.80;99.90;;;;;;5012222;28;19932;-68
2023/06/06 07:35:09;;;;;;;;;;;16.90;99.90;;;;;;5004905;28;19929;-69
2023/06/06 07:37:35;;;;;;;;;;;17.10;99.90;;;;;;5005605;28;19929;-69
2023/06/06 07:40:05;;;;;;;;;;;17.20;99.90;;;;;;5008346;28;19932;-69
2023/06/06 07:42:32;;;;;;;;;;;17.20;99.90;;;;;;5010921;28;19936;-70
2023/06/06 07:44:59;;;;;;;;;;;17.30;99.90;;;;;;5011197;28;19932;-69
2023/06/06 07:47:25;;;;;;;;;;;17.30;99.90;;;;;;5034656;28;19925;-70
2023/06/06 07:49:52;;;;;;;;;;;17.40;99.90;;;;;;5011009;28;19976;-69
2023/06/06 07:52:20;;;;;;;;;;;17.40;99.90;;;;;;5005948;28;19933;-70
2023/06/06 07:54:47;;;;;;;;;;;17.50;99.90;;;;;;5010514;28;19961;-70
2023/06/06 07:57:16;;;;;;;;;;;17.60;99.90;;;;;;5008090;28;19925;-69
2023/06/06 07:59:43;;;;;;;;;;;17.80;99.90;;;;;;5012641;28;20021;-70
2023/06/06 08:02:13;;;;;;;;;;;17.90;99.90;;;;;;5015397;28;19925;-71
2023/06/06 08:04:41;;;;;;;;;;;17.90;99.90;;;;;;5024742;28;20308;-68
2023/06/06 08:07:09;;;;;;;;;;;17.90;99.90;;;;;;5008579;28;20388;-69
2023/06/06 08:09:36;;;;;;;;;;;17.90;99.90;;;;;;5010676;28;19925;-70
2023/06/06 08:12:04;;;;;;;;;;;17.90;99.90;;;;;;5014043;28;19932;-70
2023/06/06 08:14:33;;;;;;;;;;;17.90;99.90;;;;;;5006844;28;19932;-70
2023/06/06 08:17:00;;;;;;;;;;;18.00;99.90;;;;;;5008546;28;20372;-69
2023/06/06 08:19:27;;;;;;;;;;;18.10;99.90;;;;;;5008557;28;20273;-70
2023/06/06 08:21:54;;;;;;;;;;;18.10;99.90;;;;;;5007582;28;20011;-71
2023/06/06 08:24:21;;;;;;;;;;;18.10;99.90;;;;;;5008680;28;19929;-68
2023/06/06 08:26:48;;;;;;;;;;;18.20;99.90;;;;;;5008882;28;19961;-70
2023/06/06 08:29:15;;;;;;;;;;;18.30;99.90;;;;;;5012161;28;19973;-70
2023/06/06 08:31:44;;;;;;;;;;;18.50;99.90;;;;;;5004312;28;20007;-71
2023/06/06 08:34:11;;;;;;;;;;;18.60;99.90;;;;;;5002976;28;19948;-70
2023/06/06 08:36:38;;;;;;;;;;;18.60;99.90;;;;;;5008118;28;20455;-70
2023/06/06 08:39:06;;;;;;;;;;;18.60;99.90;;;;;;5029495;28;19965;-70
2023/06/06 08:41:33;;;;;;;;;;;18.70;99.90;;;;;;5003992;28;19929;-69
2023/06/06 08:44:00;;;;;;;;;;;18.70;99.90;;;;;;5006521;28;19944;-69
2023/06/06 08:46:29;;;;;;;;;;;18.80;99.90;;;;;;5004932;28;19926;-70
2023/06/06 08:48:58;;;;;;;;;;;18.90;99.90;;;;;;5006753;28;19932;-70
2023/06/06 08:51:27;;;;;;;;;;;19.00;99.90;;;;;;5006482;28;19925;-70
2023/06/06 08:53:55;;;;;;;;;;;19.20;99.90;;;;;;5003803;28;20308;-70
2023/06/06 08:56:22;;;;;;;;;;;19.30;99.90;;;;;;5005135;28;19955;-69
2023/06/06 08:58:51;;;;;;;;;;;19.20;99.90;;;;;;5009331;28;19932;-70
2023/06/06 09:01:18;;;;;;;;;;;19.20;99.90;;;;;;5011347;28;19932;-70
2023/06/06 09:03:46;;;;;;;;;;;19.30;99.90;;;;;;5001874;28;19929;-71
2023/06/06 09:06:16;;;;;;;;;;;19.30;99.90;;;;;;5013736;28;20293;-70
2023/06/06 09:08:44;;;;;;;;;;;19.40;99.90;;;;;;5004898;28;19931;-70
2023/06/06 09:11:10;;;;;;;;;;;19.50;99.90;;;;;;5009860;28;19983;-71
2023/06/06 09:13:39;;;;;;;;;;;19.60;99.90;;;;;;5013450;28;20297;-70
2023/06/06 09:16:06;;;;;;;;;;;19.70;99.90;;;;;;5004725;28;19925;-71
2023/06/06 09:18:35;;;;;;;;;;;19.90;99.90;;;;;;5003674;28;19932;-67
2023/06/06 09:21:02;;;;;;;;;;;20.10;99.90;;;;;;5004073;28;19938;-70
2023/06/06 09:23:31;;;;;;;;;;;20.20;99.90;;;;;;5008294;28;19932;-69
2023/06/06 09:25:58;;;;;;;;;;;20.20;99.90;;;;;;5006963;28;19960;-70
2023/06/06 09:28:35;;;;;;;;;;;20.30;99.90;;;;;;5000702;28;19925;-70
2023/06/06 09:31:20;;;;;;;;;;;20.50;99.90;;;;;;5006174;28;19934;-69
2023/06/06 09:33:48;;;;;;;;;;;20.60;99.90;;;;;;4999783;28;19929;-69
2023/06/06 09:36:15;;;;;;;;;;;20.60;99.90;;;;;;5010021;28;19925;-71
2023/06/06 09:38:43;;;;;;;;;;;20.70;99.90;;;;;;5009030;28;19925;-69
2023/06/06 09:41:10;;;;;;;;;;;20.80;99.90;;;;;;5007032;28;19932;-71
2023/06/06 09:43:37;;;;;;;;;;;20.90;99.90;;;;;;5008541;28;19932;-67
2023/06/06 09:46:05;;;;;;;;;;;21.00;99.90;;;;;;5006960;28;19929;-71
2023/06/06 09:48:32;;;;;;;;;;;21.10;99.90;;;;;;5005007;28;19933;-69
2023/06/06 09:51:00;;;;;;;;;;;21.20;99.90;;;;;;5009720;28;19932;-69
2023/06/06 09:53:27;;;;;;;;;;;21.30;99.90;;;;;;5001969;28;19925;-69
2023/06/06 09:55:57;;;;;;;;;;;21.30;99.90;;;;;;5013353;28;19935;-70
2023/06/06 09:58:26;;;;;;;;;;;21.40;99.90;;;;;;5002843;28;19968;-68
2023/06/06 10:00:57;;;;;;;;;;;21.40;99.90;;;;;;5005980;28;19929;-67
2023/06/06 10:03:25;;;;;;;;;;;21.50;99.90;;;;;;5008831;28;19932;-69
2023/06/06 10:05:53;;;;;;;;;;;21.50;99.90;;;;;;5012208;28;19925;-72
2023/06/06 10:08:21;;;;;;;;;;;21.30;99.90;;;;;;5007051;28;19932;-70
2023/06/06 10:10:49;;;;;;;;;;;21.30;99.90;;;;;;5001170;28;19932;-71
2023/06/06 10:13:19;;;;;;;;;;;21.50;99.90;;;;;;5012362;28;20397;-70
2023/06/06 10:15:45;;;;;;;;;;;21.70;99.90;;;;;;5003130;28;20008;-69
2023/06/06 10:18:12;;;;;;;;;;;21.80;99.90;;;;;;5007414;28;19925;-70
2023/06/06 10:20:39;;;;;;;;;;;22.00;99.90;;;;;;5011829;28;19929;-71
2023/06/06 10:23:06;;;;;;;;;;;22.00;99.90;;;;;;5010528;28;20039;-71
2023/06/06 10:25:33;;;;;;;;;;;21.90;99.90;;;;;;5005457;28;19929;-70
2023/06/06 10:28:04;;;;;;;;;;;22.00;99.90;;;;;;5008874;28;20297;-68
2023/06/06 10:30:37;;;;;;;;;;;22.10;99.90;;;;;;5029513;28;19925;-70
2023/06/06 10:33:12;;;;;;;;;;;22.20;99.90;;;;;;5032828;28;19929;-71
2023/06/06 10:35:40;;;;;;;;;;;22.20;99.90;;;;;;5017157;28;20363;-70
2023/06/06 10:38:08;;;;;;;;;;;22.40;99.90;;;;;;5008473;28;19937;-70
2023/06/06 10:40:40;;;;;;;;;;;22.70;99.90;;;;;;5015731;28;19925;-70
2023/06/06 10:43:07;;;;;;;;;;;23.00;99.90;;;;;;5011743;28;19943;-70
2023/06/06 10:45:43;;;;;;;;;;;23.20;99.90;;;;;;5015205;28;19936;-66
2023/06/06 10:48:10;;;;;;;;;;;23.10;99.90;;;;;;5014545;28;20312;-68
2023/06/06 10:50:38;;;;;;;;;;;23.20;99.90;;;;;;5031483;28;19925;-68
2023/06/06 10:53:06;;;;;;;;;;;23.10;99.90;;;;;;5016636;28;20319;-71
2023/06/06 10:55:54;;;;;;;;;;;23.00;99.90;;;;;;5015069;28;19925;-69
2023/06/06 10:58:24;;;;;;;;;;;23.20;99.90;;;;;;5008372;28;19925;-69
2023/06/06 11:00:57;;;;;;;;;;;23.70;99.90;;;;;;5016196;28;19933;-69
2023/06/06 11:03:32;;;;;;;;;;;23.70;99.90;;;;;;5005779;28;19932;-72
2023/06/06 11:06:09;;;;;;;;;;;23.70;99.90;;;;;;5013526;28;19933;-72
2023/06/06 11:08:37;;;;;;;;;;;23.80;99.90;;;;;;5009425;28;19925;-72
2023/06/06 11:11:20;;;;;;;;;;;24.10;99.90;;;;;;5014843;28;19975;-73
2023/06/06 11:13:51;;;;;;;;;;;24.50;99.90;;;;;;5013631;28;20346;-72
2023/06/06 11:16:27;;;;;;;;;;;24.80;99.90;;;;;;5029095;28;19932;-72
2023/06/06 11:19:00;;;;;;;;;;;25.00;99.90;;;;;;5010526;28;19929;-75
2023/06/06 11:21:28;;;;;;;;;;;25.40;99.90;;;;;;5010501;28;19925;-72
2023/06/06 11:23:55;;;;;;;;;;;25.30;99.90;;;;;;5015544;28;19932;-68
2023/06/06 11:26:22;;;;;;;;;;;25.10;99.90;;;;;;5009674;28;19968;-72
2023/06/06 11:28:49;;;;;;;;;;;25.30;99.90;;;;;;5014792;28;19961;-72
2023/06/06 11:31:20;;;;;;;;;;;25.20;99.90;;;;;;5007410;28;19933;-72
2023/06/06 11:33:48;;;;;;;;;;;25.40;99.90;;;;;;5012746;28;19925;-75
2023/06/06 11:36:15;;;;;;;;;;;25.60;99.90;;;;;;5009855;28;19933;-74
2023/06/06 11:38:42;;;;;;;;;;;26.50;99.90;;;;;;5010022;28;20036;-75
2023/06/06 11:41:09;;;;;;;;;;;;;;;;;;5003692;28;20070;-72
2023/06/06 11:43:36;;;;;;;;;;;28.10;99.90;;;;;;5006920;28;20420;-72
2023/06/06 11:46:03;;;;;;;;;;;28.80;99.90;;;;;;5008539;28;19929;-72
2023/06/06 11:48:30;;;;;;;;;;;29.20;99.90;;;;;;5011080;28;20443;-72
2023/06/06 11:50:58;;;;;;;;;;;29.90;99.90;;;;;;5012526;28;19932;-72
2023/06/06 11:53:29;;;;;;;;;;;30.20;99.90;;;;;;5012979;28;19939;-72
2023/06/06 11:55:56;;;;;;;;;;;31.10;99.90;;;;;;5010098;28;19926;-73
2023/06/06 11:58:24;;;;;;;;;;;31.90;99.90;;;;;;5008306;28;20017;-73
2023/06/06 12:00:55;;;;;;;;;;;31.50;99.90;;;;;;5006906;28;19932;-73
2023/06/06 12:03:22;;;;;;;;;;;32.00;99.90;;;;;;5022685;28;19968;-73
2023/06/06 12:06:00;;;;;;;;;;;32.50;99.90;;;;;;5003465;28;20356;-73
2023/06/06 12:08:26;;;;;;;;;;;31.70;99.90;;;;;;5009411;28;19926;-73
2023/06/06 12:10:53;;;;;;;;;;;32.00;99.90;;;;;;5010215;28;19925;-73
2023/06/06 12:13:31;;;;;;;;;;;32.80;99.90;;;;;;5009328;28;19933;-73
2023/06/06 12:15:57;;;;;;;;;;;32.70;99.90;;;;;;5003289;28;20313;-73
2023/06/06 12:18:24;;;;;;;;;;;33.00;99.90;;;;;;5003446;28;19930;-73
2023/06/06 12:20:53;;;;;;;;;;;33.40;99.90;;;;;;5003263;28;20324;-73
2023/06/06 12:23:28;;;;;;;;;;;33.90;99.90;;;;;;5028137;28;19964;-73
2023/06/06 12:25:57;;;;;;;;;;;34.00;99.90;;;;;;5009104;28;19926;-74
2023/06/06 12:28:24;;;;;;;;;;;33.40;99.90;;;;;;5004776;28;19979;-73
2023/06/06 12:30:52;;;;;;;;;;;33.00;99.90;;;;;;5002220;28;20032;-73
2023/06/06 12:33:19;;;;;;;;;;;32.70;99.90;;;;;;5008258;28;19925;-73
2023/06/06 12:35:48;;;;;;;;;;;32.60;99.90;;;;;;5005048;28;19925;-74
2023/06/06 12:38:18;;;;;;;;;;;33.00;99.90;;;;;;5008510;28;19980;-73
2023/06/06 12:40:53;;;;;;;;;;;33.50;99.90;;;;;;5009441;28;19925;-73
2023/06/06 12:43:20;;;;;;;;;;;34.10;99.90;;;;;;5025254;28;19963;-75
2023/06/06 12:45:47;;;;;;;;;;;34.40;99.90;;;;;;5016220;28;19936;-76
2023/06/06 12:48:15;;;;;;;;;;;34.40;99.90;;;;;;5006829;28;19932;-73
2023/06/06 12:50:43;;;;;;;;;;;34.60;99.90;;;;;;5000691;28;20401;-73
2023/06/06 12:53:11;;;;;;;;;;;34.70;99.90;;;;;;5028550;28;19968;-73
2023/06/06 12:55:38;;;;;;;;;;;34.70;99.90;;;;;;5020660;28;20328;-73
2023/06/06 12:58:07;;;;;;;;;;;34.50;99.90;;;;;;5004998;28;19937;-74
2023/06/06 13:00:33;;;;;;;;;;;35.10;99.90;;;;;;5010493;28;19961;-73
2023/06/06 13:03:00;;;;;;;;;;;35.30;99.90;;;;;;5006267;28;19932;-73
2023/06/06 13:05:27;;;;;;;;;;;35.50;99.90;;;;;;5009479;28;19948;-73
2023/06/06 13:07:54;;;;;;;;;;;35.30;99.90;;;;;;5013086;28;19932;-73
2023/06/06 13:10:21;;;;;;;;;;;35.00;99.90;;;;;;5010080;28;19932;-73
2023/06/06 13:12:49;;;;;;;;;;;35.00;99.90;;;;;;5010553;28;19926;-73
2023/06/06 13:15:17;;;;;;;;;;;35.00;99.90;;;;;;5004581;28;19929;-73
2023/06/06 13:17:44;;;;;;;;;;;35.40;99.90;;;;;;5005322;28;19925;-73
2023/06/06 13:20:11;;;;;;;;;;;35.50;99.90;;;;;;5012788;28;19932;-73
2023/06/06 13:22:38;;;;;;;;;;;36.00;99.90;;;;;;5003097;28;19932;-75
2023/06/06 13:25:06;;;;;;;;;;;36.80;99.90;;;;;;5006615;28;19933;-74
2023/06/06 13:27:32;;;;;;;;;;;37.40;99.90;;;;;;5005729;28;20339;-70
2023/06/06 13:29:59;;;;;;;;;;;37.70;99.90;;;;;;5010368;28;20384;-69
2023/06/06 13:32:27;;;;;;;;;;;38.50;99.90;;;;;;5011050;28;19988;-70
2023/06/06 13:34:56;;;;;;;;;;;39.10;99.90;;;;;;5008511;28;20099;-71
2023/06/06 13:37:23;;;;;;;;;;;39.20;99.90;;;;;;5011562;28;19925;-71
2023/06/06 13:39:49;;;;;;;;;;;38.80;99.90;;;;;;5009972;28;19932;-72
2023/06/06 13:42:16;;;;;;;;;;;38.80;99.90;;;;;;5004329;28;19929;-71
2023/06/06 13:44:43;;;;;;;;;;;38.70;99.90;;;;;;5010030;28;19932;-71
2023/06/06 13:47:10;;;;;;;;;;;38.50;99.90;;;;;;5007937;28;19925;-71
2023/06/06 13:49:39;;;;;;;;;;;38.00;99.90;;;;;;5011396;28;19925;-71
2023/06/06 13:52:06;;;;;;;;;;;37.80;99.90;;;;;;5006674;28;19979;-71
2023/06/06 13:54:33;;;;;;;;;;;37.30;99.90;;;;;;5004111;28;20289;-70
2023/06/06 13:57:00;;;;;;;;;;;37.10;99.90;;;;;;5011697;28;19932;-71
2023/06/06 13:59:27;;;;;;;;;;;36.90;99.90;;;;;;5009104;28;20388;-71
2023/06/06 14:01:54;;;;;;;;;;;36.70;99.90;;;;;;5007674;28;19968;-72
2023/06/06 14:04:21;;;;;;;;;;;37.00;99.90;;;;;;5007491;28;19925;-72
2023/06/06 14:06:50;;;;;;;;;;;36.90;99.90;;;;;;5005227;28;19932;-72
2023/06/06 14:09:18;;;;;;;;;;;36.50;99.90;;;;;;5008789;28;20355;-71
2023/06/06 14:11:47;;;;;;;;;;;35.90;99.90;;;;;;5002334;28;19926;-72
2023/06/06 14:14:14;;;;;;;;;;;35.70;99.90;;;;;;5007422;28;20335;-71
2023/06/06 14:16:41;;;;;;;;;;;36.20;99.90;;;;;;5010692;28;20024;-71
2023/06/06 14:19:12;;;;;;;;;;;36.10;99.90;;;;;;5010205;28;19925;-69
2023/06/06 14:21:57;;;;;;;;;;;35.90;99.90;;;;;;5023463;28;19925;-72
2023/06/06 14:24:26;;;;;;;;;;;;;;;;;;5010868;28;20526;-71